sensor_id;sensor_type;location;lat;lon;timestamp;P1;durP1;ratioP1;P2;durP2;ratioP2
82640;SDS011;72322;41.918;22.414;2023-08-21T00:00:07;7.25;;;4.40;;
82640;SDS011;72322;41.918;22.414;2023-08-21T00:02:33;5.10;;;4.10;;
82640;SDS011;72322;41.918;22.414;2023-08-21T00:04:59;6.50;;;4.30;;
82640;SDS011;72322;41.918;22.414;2023-08-21T00:07:25;4.45;;;3.60;;
82640;SDS011;72322;41.918;22.414;2023-08-21T00:09:51;5.53;;;4.60;;
82640;SDS011;72322;41.918;22.414;2023-08-21T00:12:17;6.72;;;4.22;;
82640;SDS011;72322;41.918;22.414;2023-08-21T00:14:43;5.80;;;4.05;;
82640;SDS011;72322;41.918;22.414;2023-08-21T00:17:09;5.32;;;4.60;;
82640;SDS011;72322;41.918;22.414;2023-08-21T00:19:35;9.68;;;4.30;;
82640;SDS011;72322;41.918;22.414;2023-08-21T00:22:01;4.60;;;4.20;;
82640;SDS011;72322;41.918;22.414;2023-08-21T00:24:28;4.68;;;3.85;;
82640;SDS011;72322;41.918;22.414;2023-08-21T00:26:54;6.63;;;4.85;;
82640;SDS011;72322;41.918;22.414;2023-08-21T00:29:20;6.93;;;4.47;;
82640;SDS011;72322;41.918;22.414;2023-08-21T00:31:46;5.85;;;4.72;;
82640;SDS011;72322;41.918;22.414;2023-08-21T00:34:12;7.55;;;4.50;;
82640;SDS011;72322;41.918;22.414;2023-08-21T00:36:38;5.35;;;4.75;;
82640;SDS011;72322;41.918;22.414;2023-08-21T00:39:04;5.20;;;3.95;;
82640;SDS011;72322;41.918;22.414;2023-08-21T00:41:31;4.78;;;3.78;;
82640;SDS011;72322;41.918;22.414;2023-08-21T00:43:59;9.98;;;4.60;;
82640;SDS011;72322;41.918;22.414;2023-08-21T00:46:25;6.28;;;4.00;;
82640;SDS011;72322;41.918;22.414;2023-08-21T00:48:51;4.63;;;4.05;;
82640;SDS011;72322;41.918;22.414;2023-08-21T00:51:18;5.88;;;4.25;;
82640;SDS011;72322;41.918;22.414;2023-08-21T00:53:44;7.65;;;4.57;;
82640;SDS011;72322;41.918;22.414;2023-08-21T00:56:11;5.80;;;4.28;;
82640;SDS011;72322;41.918;22.414;2023-08-21T00:58:37;4.97;;;4.10;;
82640;SDS011;72322;41.918;22.414;2023-08-21T01:01:03;7.85;;;5.22;;
82640;SDS011;72322;41.918;22.414;2023-08-21T01:03:30;6.20;;;4.53;;
82640;SDS011;72322;41.918;22.414;2023-08-21T01:05:56;8.95;;;4.47;;
82640;SDS011;72322;41.918;22.414;2023-08-21T01:11:25;4.55;;;3.80;;
82640;SDS011;72322;41.918;22.414;2023-08-21T01:16:10;7.97;;;5.15;;
82640;SDS011;72322;41.918;22.414;2023-08-21T01:18:37;6.13;;;4.40;;
82640;SDS011;72322;41.918;22.414;2023-08-21T01:21:04;5.93;;;4.10;;
82640;SDS011;72322;41.918;22.414;2023-08-21T01:23:34;5.50;;;4.85;;
82640;SDS011;72322;41.918;22.414;2023-08-21T01:26:00;9.68;;;4.70;;
82640;SDS011;72322;41.918;22.414;2023-08-21T01:28:26;6.93;;;4.20;;
82640;SDS011;72322;41.918;22.414;2023-08-21T01:30:55;5.18;;;4.38;;
82640;SDS011;72322;41.918;22.414;2023-08-21T01:33:24;7.22;;;4.85;;
82640;SDS011;72322;41.918;22.414;2023-08-21T01:35:52;6.50;;;4.72;;
82640;SDS011;72322;41.918;22.414;2023-08-21T01:38:18;7.40;;;5.68;;
82640;SDS011;72322;41.918;22.414;2023-08-21T01:40:46;5.43;;;4.05;;
82640;SDS011;72322;41.918;22.414;2023-08-21T01:43:12;4.68;;;4.20;;
82640;SDS011;72322;41.918;22.414;2023-08-21T01:45:38;6.35;;;4.80;;
82640;SDS011;72322;41.918;22.414;2023-08-21T01:48:05;5.47;;;4.18;;
82640;SDS011;72322;41.918;22.414;2023-08-21T01:50:31;10.50;;;5.90;;
82640;SDS011;72322;41.918;22.414;2023-08-21T01:52:57;6.65;;;4.75;;
82640;SDS011;72322;41.918;22.414;2023-08-21T01:55:23;6.35;;;4.78;;
82640;SDS011;72322;41.918;22.414;2023-08-21T01:57:49;5.53;;;4.72;;
82640;SDS011;72322;41.918;22.414;2023-08-21T02:00:15;6.53;;;4.68;;
82640;SDS011;72322;41.918;22.414;2023-08-21T02:02:41;7.07;;;4.60;;
82640;SDS011;72322;41.918;22.414;2023-08-21T02:05:07;6.65;;;4.60;;
82640;SDS011;72322;41.918;22.414;2023-08-21T02:07:33;6.55;;;4.60;;
82640;SDS011;72322;41.918;22.414;2023-08-21T02:09:59;5.50;;;4.57;;
82640;SDS011;72322;41.918;22.414;2023-08-21T02:12:26;7.22;;;5.10;;
82640;SDS011;72322;41.918;22.414;2023-08-21T02:14:52;6.93;;;4.93;;
82640;SDS011;72322;41.918;22.414;2023-08-21T02:17:18;7.57;;;5.18;;
82640;SDS011;72322;41.918;22.414;2023-08-21T02:19:44;5.70;;;4.85;;
82640;SDS011;72322;41.918;22.414;2023-08-21T02:22:10;7.07;;;5.30;;
82640;SDS011;72322;41.918;22.414;2023-08-21T02:24:36;5.72;;;4.90;;
82640;SDS011;72322;41.918;22.414;2023-08-21T02:27:03;6.88;;;4.70;;
82640;SDS011;72322;41.918;22.414;2023-08-21T02:29:29;8.05;;;4.93;;
82640;SDS011;72322;41.918;22.414;2023-08-21T02:31:55;7.47;;;4.80;;
82640;SDS011;72322;41.918;22.414;2023-08-21T02:34:21;7.72;;;4.68;;
82640;SDS011;72322;41.918;22.414;2023-08-21T02:36:47;5.68;;;4.90;;
82640;SDS011;72322;41.918;22.414;2023-08-21T02:39:13;6.35;;;4.82;;
82640;SDS011;72322;41.918;22.414;2023-08-21T02:41:40;6.18;;;4.82;;
82640;SDS011;72322;41.918;22.414;2023-08-21T02:44:06;6.80;;;5.07;;
82640;SDS011;72322;41.918;22.414;2023-08-21T02:46:32;6.43;;;4.80;;
82640;SDS011;72322;41.918;22.414;2023-08-21T02:49:00;8.02;;;4.60;;
82640;SDS011;72322;41.918;22.414;2023-08-21T02:51:26;7.70;;;5.30;;
82640;SDS011;72322;41.918;22.414;2023-08-21T02:53:52;6.07;;;4.95;;
82640;SDS011;72322;41.918;22.414;2023-08-21T02:56:18;6.05;;;4.97;;
82640;SDS011;72322;41.918;22.414;2023-08-21T02:58:44;5.07;;;4.53;;
82640;SDS011;72322;41.918;22.414;2023-08-21T03:01:10;7.10;;;4.72;;
82640;SDS011;72322;41.918;22.414;2023-08-21T03:03:36;5.35;;;4.57;;
82640;SDS011;72322;41.918;22.414;2023-08-21T03:06:03;6.68;;;5.25;;
82640;SDS011;72322;41.918;22.414;2023-08-21T03:08:29;7.00;;;4.90;;
82640;SDS011;72322;41.918;22.414;2023-08-21T03:10:55;9.85;;;5.30;;
82640;SDS011;72322;41.918;22.414;2023-08-21T03:13:21;8.32;;;5.90;;
82640;SDS011;72322;41.918;22.414;2023-08-21T03:15:47;7.38;;;5.38;;
82640;SDS011;72322;41.918;22.414;2023-08-21T03:18:13;5.78;;;5.03;;
82640;SDS011;72322;41.918;22.414;2023-08-21T03:20:45;10.07;;;6.15;;
82640;SDS011;72322;41.918;22.414;2023-08-21T03:23:12;7.35;;;5.07;;
82640;SDS011;72322;41.918;22.414;2023-08-21T03:25:38;7.10;;;5.57;;
82640;SDS011;72322;41.918;22.414;2023-08-21T03:28:04;6.95;;;4.97;;
82640;SDS011;72322;41.918;22.414;2023-08-21T03:30:30;7.57;;;5.18;;
82640;SDS011;72322;41.918;22.414;2023-08-21T03:32:57;7.50;;;4.65;;
82640;SDS011;72322;41.918;22.414;2023-08-21T03:35:23;5.82;;;5.10;;
82640;SDS011;72322;41.918;22.414;2023-08-21T03:37:49;6.88;;;5.18;;
82640;SDS011;72322;41.918;22.414;2023-08-21T03:40:15;5.82;;;4.65;;
82640;SDS011;72322;41.918;22.414;2023-08-21T03:42:41;8.00;;;4.80;;
82640;SDS011;72322;41.918;22.414;2023-08-21T03:45:08;5.88;;;4.68;;
82640;SDS011;72322;41.918;22.414;2023-08-21T03:47:34;9.35;;;5.50;;
82640;SDS011;72322;41.918;22.414;2023-08-21T03:50:00;7.60;;;5.22;;
82640;SDS011;72322;41.918;22.414;2023-08-21T03:52:26;5.53;;;4.82;;
82640;SDS011;72322;41.918;22.414;2023-08-21T03:54:52;6.57;;;5.38;;
82640;SDS011;72322;41.918;22.414;2023-08-21T03:57:18;7.03;;;4.97;;
82640;SDS011;72322;41.918;22.414;2023-08-21T03:59:44;5.97;;;5.45;;
82640;SDS011;72322;41.918;22.414;2023-08-21T04:02:10;5.93;;;5.13;;
82640;SDS011;72322;41.918;22.414;2023-08-21T04:04:37;5.93;;;4.47;;
82640;SDS011;72322;41.918;22.414;2023-08-21T04:07:03;6.03;;;5.03;;
82640;SDS011;72322;41.918;22.414;2023-08-21T04:09:29;6.13;;;5.00;;
82640;SDS011;72322;41.918;22.414;2023-08-21T04:11:55;10.18;;;6.25;;
82640;SDS011;72322;41.918;22.414;2023-08-21T04:14:21;5.70;;;4.85;;
82640;SDS011;72322;41.918;22.414;2023-08-21T04:16:47;10.70;;;6.05;;
82640;SDS011;72322;41.918;22.414;2023-08-21T04:19:13;6.75;;;4.82;;
82640;SDS011;72322;41.918;22.414;2023-08-21T04:21:39;7.68;;;5.15;;
82640;SDS011;72322;41.918;22.414;2023-08-21T04:24:05;6.50;;;5.00;;
82640;SDS011;72322;41.918;22.414;2023-08-21T04:26:31;7.40;;;5.80;;
82640;SDS011;72322;41.918;22.414;2023-08-21T04:28:57;7.88;;;5.35;;
82640;SDS011;72322;41.918;22.414;2023-08-21T04:31:23;11.23;;;5.40;;
82640;SDS011;72322;41.918;22.414;2023-08-21T04:33:49;7.28;;;5.30;;
82640;SDS011;72322;41.918;22.414;2023-08-21T04:36:16;7.45;;;5.22;;
82640;SDS011;72322;41.918;22.414;2023-08-21T04:38:42;7.63;;;5.00;;
82640;SDS011;72322;41.918;22.414;2023-08-21T04:41:09;6.15;;;5.03;;
82640;SDS011;72322;41.918;22.414;2023-08-21T04:43:35;9.52;;;4.88;;
82640;SDS011;72322;41.918;22.414;2023-08-21T04:46:01;7.97;;;5.55;;
82640;SDS011;72322;41.918;22.414;2023-08-21T04:48:27;8.13;;;5.78;;
82640;SDS011;72322;41.918;22.414;2023-08-21T04:50:53;9.52;;;6.03;;
82640;SDS011;72322;41.918;22.414;2023-08-21T04:53:19;7.97;;;5.90;;
82640;SDS011;72322;41.918;22.414;2023-08-21T04:55:45;7.97;;;6.30;;
82640;SDS011;72322;41.918;22.414;2023-08-21T04:58:11;10.02;;;6.50;;
82640;SDS011;72322;41.918;22.414;2023-08-21T05:00:37;7.30;;;6.05;;
82640;SDS011;72322;41.918;22.414;2023-08-21T05:03:03;8.23;;;5.65;;
82640;SDS011;72322;41.918;22.414;2023-08-21T05:05:29;12.10;;;6.60;;
82640;SDS011;72322;41.918;22.414;2023-08-21T05:07:56;13.07;;;6.22;;
82640;SDS011;72322;41.918;22.414;2023-08-21T05:10:22;11.00;;;5.78;;
82640;SDS011;72322;41.918;22.414;2023-08-21T05:12:48;9.15;;;5.97;;
82640;SDS011;72322;41.918;22.414;2023-08-21T05:15:14;13.85;;;6.43;;
82640;SDS011;72322;41.918;22.414;2023-08-21T05:17:40;10.75;;;6.97;;
82640;SDS011;72322;41.918;22.414;2023-08-21T05:20:06;10.60;;;6.88;;
82640;SDS011;72322;41.918;22.414;2023-08-21T05:22:32;12.27;;;6.90;;
82640;SDS011;72322;41.918;22.414;2023-08-21T05:24:58;9.60;;;7.75;;
82640;SDS011;72322;41.918;22.414;2023-08-21T05:27:25;14.00;;;7.47;;
82640;SDS011;72322;41.918;22.414;2023-08-21T05:29:51;12.05;;;7.53;;
82640;SDS011;72322;41.918;22.414;2023-08-21T05:32:17;7.00;;;6.22;;
82640;SDS011;72322;41.918;22.414;2023-08-21T05:34:43;8.68;;;6.30;;
82640;SDS011;72322;41.918;22.414;2023-08-21T05:37:09;6.43;;;5.80;;
82640;SDS011;72322;41.918;22.414;2023-08-21T05:39:35;11.32;;;7.55;;
82640;SDS011;72322;41.918;22.414;2023-08-21T05:42:02;12.30;;;7.10;;
82640;SDS011;72322;41.918;22.414;2023-08-21T05:44:28;15.00;;;8.27;;
82640;SDS011;72322;41.918;22.414;2023-08-21T05:46:54;11.73;;;7.57;;
82640;SDS011;72322;41.918;22.414;2023-08-21T05:49:20;11.50;;;7.32;;
82640;SDS011;72322;41.918;22.414;2023-08-21T05:51:46;9.85;;;7.25;;
82640;SDS011;72322;41.918;22.414;2023-08-21T05:54:12;10.60;;;6.85;;
82640;SDS011;72322;41.918;22.414;2023-08-21T05:56:38;8.68;;;6.72;;
82640;SDS011;72322;41.918;22.414;2023-08-21T05:59:04;9.40;;;7.22;;
82640;SDS011;72322;41.918;22.414;2023-08-21T06:01:30;8.32;;;6.63;;
82640;SDS011;72322;41.918;22.414;2023-08-21T06:03:57;11.23;;;6.90;;
82640;SDS011;72322;41.918;22.414;2023-08-21T06:06:23;9.32;;;6.93;;
82640;SDS011;72322;41.918;22.414;2023-08-21T06:08:49;11.23;;;6.45;;
82640;SDS011;72322;41.918;22.414;2023-08-21T06:11:15;13.35;;;6.80;;
82640;SDS011;72322;41.918;22.414;2023-08-21T06:13:41;10.00;;;6.95;;
82640;SDS011;72322;41.918;22.414;2023-08-21T06:16:07;7.13;;;6.28;;
82640;SDS011;72322;41.918;22.414;2023-08-21T06:18:33;7.68;;;6.13;;
82640;SDS011;72322;41.918;22.414;2023-08-21T06:20:59;10.90;;;6.80;;
82640;SDS011;72322;41.918;22.414;2023-08-21T06:23:25;11.82;;;6.45;;
82640;SDS011;72322;41.918;22.414;2023-08-21T06:25:51;9.85;;;6.28;;
82640;SDS011;72322;41.918;22.414;2023-08-21T06:28:17;10.93;;;5.80;;
82640;SDS011;72322;41.918;22.414;2023-08-21T06:30:44;9.88;;;5.80;;
82640;SDS011;72322;41.918;22.414;2023-08-21T06:33:10;8.93;;;5.78;;
82640;SDS011;72322;41.918;22.414;2023-08-21T06:35:36;13.40;;;9.60;;
82640;SDS011;72322;41.918;22.414;2023-08-21T06:38:03;11.38;;;5.93;;
82640;SDS011;72322;41.918;22.414;2023-08-21T06:40:29;8.55;;;5.57;;
82640;SDS011;72322;41.918;22.414;2023-08-21T06:42:55;10.55;;;5.68;;
82640;SDS011;72322;41.918;22.414;2023-08-21T06:45:21;8.07;;;4.88;;
82640;SDS011;72322;41.918;22.414;2023-08-21T06:47:47;9.20;;;6.07;;
82640;SDS011;72322;41.918;22.414;2023-08-21T06:50:15;9.95;;;5.70;;
82640;SDS011;72322;41.918;22.414;2023-08-21T06:52:41;8.93;;;5.53;;
82640;SDS011;72322;41.918;22.414;2023-08-21T06:55:08;8.70;;;5.50;;
82640;SDS011;72322;41.918;22.414;2023-08-21T06:57:34;8.50;;;6.40;;
82640;SDS011;72322;41.918;22.414;2023-08-21T07:00:03;7.00;;;5.57;;
82640;SDS011;72322;41.918;22.414;2023-08-21T07:02:29;8.65;;;5.82;;
82640;SDS011;72322;41.918;22.414;2023-08-21T07:04:55;6.40;;;5.40;;
82640;SDS011;72322;41.918;22.414;2023-08-21T07:07:21;7.38;;;5.55;;
82640;SDS011;72322;41.918;22.414;2023-08-21T07:09:49;6.38;;;5.30;;
82640;SDS011;72322;41.918;22.414;2023-08-21T07:12:16;6.68;;;5.68;;
82640;SDS011;72322;41.918;22.414;2023-08-21T07:14:42;7.82;;;5.53;;
82640;SDS011;72322;41.918;22.414;2023-08-21T07:17:08;6.80;;;6.07;;
82640;SDS011;72322;41.918;22.414;2023-08-21T07:19:34;7.28;;;5.35;;
82640;SDS011;72322;41.918;22.414;2023-08-21T07:22:00;8.93;;;5.75;;
82640;SDS011;72322;41.918;22.414;2023-08-21T07:24:26;10.75;;;6.03;;
82640;SDS011;72322;41.918;22.414;2023-08-21T07:26:52;9.35;;;5.80;;
82640;SDS011;72322;41.918;22.414;2023-08-21T07:29:18;8.90;;;6.65;;
82640;SDS011;72322;41.918;22.414;2023-08-21T07:31:44;10.60;;;6.55;;
82640;SDS011;72322;41.918;22.414;2023-08-21T07:34:10;8.40;;;6.50;;
82640;SDS011;72322;41.918;22.414;2023-08-21T07:36:36;9.05;;;6.30;;
82640;SDS011;72322;41.918;22.414;2023-08-21T07:39:03;7.65;;;6.20;;
82640;SDS011;72322;41.918;22.414;2023-08-21T07:41:29;10.43;;;5.85;;
82640;SDS011;72322;41.918;22.414;2023-08-21T07:43:55;10.45;;;5.75;;
82640;SDS011;72322;41.918;22.414;2023-08-21T07:46:21;6.53;;;5.75;;
82640;SDS011;72322;41.918;22.414;2023-08-21T07:48:47;7.03;;;5.10;;
82640;SDS011;72322;41.918;22.414;2023-08-21T07:51:14;7.00;;;5.40;;
82640;SDS011;72322;41.918;22.414;2023-08-21T07:53:40;10.82;;;6.13;;
82640;SDS011;72322;41.918;22.414;2023-08-21T07:56:07;7.53;;;6.13;;
82640;SDS011;72322;41.918;22.414;2023-08-21T07:58:33;10.27;;;5.68;;
82640;SDS011;72322;41.918;22.414;2023-08-21T08:00:59;10.88;;;5.88;;
82640;SDS011;72322;41.918;22.414;2023-08-21T08:03:26;9.90;;;5.55;;
82640;SDS011;72322;41.918;22.414;2023-08-21T08:05:52;7.80;;;5.68;;
82640;SDS011;72322;41.918;22.414;2023-08-21T08:08:18;7.45;;;6.00;;
82640;SDS011;72322;41.918;22.414;2023-08-21T08:10:44;6.53;;;5.03;;
82640;SDS011;72322;41.918;22.414;2023-08-21T08:13:10;6.20;;;5.38;;
82640;SDS011;72322;41.918;22.414;2023-08-21T08:15:37;5.82;;;5.28;;
82640;SDS011;72322;41.918;22.414;2023-08-21T08:18:04;8.98;;;5.80;;
82640;SDS011;72322;41.918;22.414;2023-08-21T08:20:32;5.50;;;4.82;;
82640;SDS011;72322;41.918;22.414;2023-08-21T08:22:58;6.63;;;4.88;;
82640;SDS011;72322;41.918;22.414;2023-08-21T08:25:24;5.82;;;4.90;;
82640;SDS011;72322;41.918;22.414;2023-08-21T08:27:51;9.40;;;5.20;;
82640;SDS011;72322;41.918;22.414;2023-08-21T08:30:19;7.22;;;4.35;;
82640;SDS011;72322;41.918;22.414;2023-08-21T08:32:45;7.20;;;4.93;;
82640;SDS011;72322;41.918;22.414;2023-08-21T08:35:12;6.43;;;5.15;;
82640;SDS011;72322;41.918;22.414;2023-08-21T08:37:38;6.07;;;5.18;;
82640;SDS011;72322;41.918;22.414;2023-08-21T08:40:06;5.82;;;4.63;;
82640;SDS011;72322;41.918;22.414;2023-08-21T08:42:33;5.82;;;4.80;;
82640;SDS011;72322;41.918;22.414;2023-08-21T08:45:00;6.97;;;5.13;;
82640;SDS011;72322;41.918;22.414;2023-08-21T08:47:28;7.25;;;4.55;;
82640;SDS011;72322;41.918;22.414;2023-08-21T08:49:55;6.55;;;5.07;;
82640;SDS011;72322;41.918;22.414;2023-08-21T08:52:21;6.80;;;4.68;;
82640;SDS011;72322;41.918;22.414;2023-08-21T08:54:49;6.88;;;4.38;;
82640;SDS011;72322;41.918;22.414;2023-08-21T08:57:15;5.93;;;4.35;;
82640;SDS011;72322;41.918;22.414;2023-08-21T08:59:41;7.05;;;4.40;;
82640;SDS011;72322;41.918;22.414;2023-08-21T09:02:07;6.93;;;4.40;;
82640;SDS011;72322;41.918;22.414;2023-08-21T09:04:33;6.07;;;4.00;;
82640;SDS011;72322;41.918;22.414;2023-08-21T09:07:05;8.05;;;4.55;;
82640;SDS011;72322;41.918;22.414;2023-08-21T09:09:41;5.30;;;4.18;;
82640;SDS011;72322;41.918;22.414;2023-08-21T09:12:11;8.43;;;4.68;;
82640;SDS011;72322;41.918;22.414;2023-08-21T09:14:38;5.15;;;4.65;;
82640;SDS011;72322;41.918;22.414;2023-08-21T09:17:05;7.93;;;4.18;;
82640;SDS011;72322;41.918;22.414;2023-08-21T09:19:31;6.20;;;4.70;;
82640;SDS011;72322;41.918;22.414;2023-08-21T09:21:57;10.57;;;5.40;;
82640;SDS011;72322;41.918;22.414;2023-08-21T09:24:23;9.82;;;4.05;;
82640;SDS011;72322;41.918;22.414;2023-08-21T09:26:50;4.43;;;3.97;;
82640;SDS011;72322;41.918;22.414;2023-08-21T09:29:16;6.97;;;4.75;;
82640;SDS011;72322;41.918;22.414;2023-08-21T09:31:43;6.90;;;3.95;;
82640;SDS011;72322;41.918;22.414;2023-08-21T09:34:10;6.50;;;4.35;;
82640;SDS011;72322;41.918;22.414;2023-08-21T09:36:37;5.80;;;3.80;;
82640;SDS011;72322;41.918;22.414;2023-08-21T09:39:04;7.07;;;5.55;;
82640;SDS011;72322;41.918;22.414;2023-08-21T09:41:31;6.18;;;4.75;;
82640;SDS011;72322;41.918;22.414;2023-08-21T09:44:01;6.63;;;3.53;;
82640;SDS011;72322;41.918;22.414;2023-08-21T09:46:29;6.07;;;3.83;;
82640;SDS011;72322;41.918;22.414;2023-08-21T09:48:55;5.18;;;3.90;;
82640;SDS011;72322;41.918;22.414;2023-08-21T09:51:21;5.25;;;4.07;;
82640;SDS011;72322;41.918;22.414;2023-08-21T09:53:48;7.93;;;3.80;;
82640;SDS011;72322;41.918;22.414;2023-08-21T09:56:14;7.45;;;3.90;;
82640;SDS011;72322;41.918;22.414;2023-08-21T09:58:40;6.57;;;3.90;;
82640;SDS011;72322;41.918;22.414;2023-08-21T10:01:07;4.28;;;3.78;;
82640;SDS011;72322;41.918;22.414;2023-08-21T10:06:06;5.45;;;3.97;;
82640;SDS011;72322;41.918;22.414;2023-08-21T10:08:36;10.25;;;4.00;;
82640;SDS011;72322;41.918;22.414;2023-08-21T10:11:06;5.07;;;3.80;;
82640;SDS011;72322;41.918;22.414;2023-08-21T10:13:33;4.68;;;3.78;;
82640;SDS011;72322;41.918;22.414;2023-08-21T10:16:00;4.47;;;3.80;;
82640;SDS011;72322;41.918;22.414;2023-08-21T10:18:30;6.18;;;3.97;;
82640;SDS011;72322;41.918;22.414;2023-08-21T10:21:09;6.15;;;3.85;;
82640;SDS011;72322;41.918;22.414;2023-08-21T10:23:36;6.88;;;3.97;;
82640;SDS011;72322;41.918;22.414;2023-08-21T10:26:05;5.15;;;4.43;;
82640;SDS011;72322;41.918;22.414;2023-08-21T10:28:41;6.10;;;3.97;;
82640;SDS011;72322;41.918;22.414;2023-08-21T10:31:30;6.32;;;3.75;;
82640;SDS011;72322;41.918;22.414;2023-08-21T10:33:55;4.45;;;3.58;;
82640;SDS011;72322;41.918;22.414;2023-08-21T10:39:30;6.55;;;3.90;;
82640;SDS011;72322;41.918;22.414;2023-08-21T10:41:37;5.50;;;4.03;;
82640;SDS011;72322;41.918;22.414;2023-08-21T10:44:05;5.95;;;4.00;;
82640;SDS011;72322;41.918;22.414;2023-08-21T10:46:49;9.80;;;4.32;;
82640;SDS011;72322;41.918;22.414;2023-08-21T10:49:15;5.15;;;3.85;;
82640;SDS011;72322;41.918;22.414;2023-08-21T10:51:42;6.43;;;4.15;;
82640;SDS011;72322;41.918;22.414;2023-08-21T10:54:15;7.28;;;3.85;;
82640;SDS011;72322;41.918;22.414;2023-08-21T10:56:41;4.90;;;3.78;;
82640;SDS011;72322;41.918;22.414;2023-08-21T10:59:07;6.25;;;4.13;;
82640;SDS011;72322;41.918;22.414;2023-08-21T11:01:42;9.25;;;4.05;;
82640;SDS011;72322;41.918;22.414;2023-08-21T11:04:09;10.00;;;4.10;;
82640;SDS011;72322;41.918;22.414;2023-08-21T11:06:35;4.72;;;3.42;;
82640;SDS011;72322;41.918;22.414;2023-08-21T11:09:02;4.57;;;3.67;;
82640;SDS011;72322;41.918;22.414;2023-08-21T11:11:29;8.98;;;4.20;;
82640;SDS011;72322;41.918;22.414;2023-08-21T11:13:55;5.18;;;3.97;;
82640;SDS011;72322;41.918;22.414;2023-08-21T11:16:21;7.18;;;4.05;;
82640;SDS011;72322;41.918;22.414;2023-08-21T11:18:47;5.45;;;4.20;;
82640;SDS011;72322;41.918;22.414;2023-08-21T11:21:14;7.25;;;4.22;;
82640;SDS011;72322;41.918;22.414;2023-08-21T11:23:40;4.50;;;3.55;;
82640;SDS011;72322;41.918;22.414;2023-08-21T11:28:32;3.75;;;3.28;;
82640;SDS011;72322;41.918;22.414;2023-08-21T11:30:59;6.15;;;3.67;;
82640;SDS011;72322;41.918;22.414;2023-08-21T11:33:25;5.00;;;3.28;;
82640;SDS011;72322;41.918;22.414;2023-08-21T11:35:52;7.30;;;3.28;;
82640;SDS011;72322;41.918;22.414;2023-08-21T11:38:19;4.20;;;3.53;;
82640;SDS011;72322;41.918;22.414;2023-08-21T11:40:59;4.50;;;3.58;;
82640;SDS011;72322;41.918;22.414;2023-08-21T11:43:35;8.00;;;4.22;;
82640;SDS011;72322;41.918;22.414;2023-08-21T11:46:02;4.32;;;3.70;;
82640;SDS011;72322;41.918;22.414;2023-08-21T11:48:28;5.57;;;3.67;;
82640;SDS011;72322;41.918;22.414;2023-08-21T11:50:54;6.45;;;3.90;;
82640;SDS011;72322;41.918;22.414;2023-08-21T11:53:38;6.00;;;3.40;;
82640;SDS011;72322;41.918;22.414;2023-08-21T11:56:12;6.00;;;3.83;;
82640;SDS011;72322;41.918;22.414;2023-08-21T11:58:39;8.68;;;3.70;;
82640;SDS011;72322;41.918;22.414;2023-08-21T12:01:05;4.63;;;3.65;;
82640;SDS011;72322;41.918;22.414;2023-08-21T12:03:38;8.52;;;4.30;;
82640;SDS011;72322;41.918;22.414;2023-08-21T12:06:08;6.78;;;3.50;;
82640;SDS011;72322;41.918;22.414;2023-08-21T12:08:35;7.75;;;3.70;;
82640;SDS011;72322;41.918;22.414;2023-08-21T12:11:01;5.28;;;3.72;;
82640;SDS011;72322;41.918;22.414;2023-08-21T12:13:27;6.18;;;3.78;;
82640;SDS011;72322;41.918;22.414;2023-08-21T12:15:53;5.20;;;3.42;;
82640;SDS011;72322;41.918;22.414;2023-08-21T12:18:19;6.68;;;3.40;;
82640;SDS011;72322;41.918;22.414;2023-08-21T12:20:45;7.57;;;4.15;;
82640;SDS011;72322;41.918;22.414;2023-08-21T12:23:11;6.85;;;3.63;;
82640;SDS011;72322;41.918;22.414;2023-08-21T12:25:37;15.55;;;4.68;;
82640;SDS011;72322;41.918;22.414;2023-08-21T12:28:04;4.78;;;3.65;;
82640;SDS011;72322;41.918;22.414;2023-08-21T12:30:30;7.55;;;3.83;;
82640;SDS011;72322;41.918;22.414;2023-08-21T12:32:56;6.38;;;3.72;;
82640;SDS011;72322;41.918;22.414;2023-08-21T12:35:22;7.00;;;3.70;;
82640;SDS011;72322;41.918;22.414;2023-08-21T12:37:48;5.60;;;4.40;;
82640;SDS011;72322;41.918;22.414;2023-08-21T12:40:14;7.78;;;4.20;;
82640;SDS011;72322;41.918;22.414;2023-08-21T12:42:41;6.18;;;4.40;;
82640;SDS011;72322;41.918;22.414;2023-08-21T12:45:07;6.15;;;4.50;;
82640;SDS011;72322;41.918;22.414;2023-08-21T12:47:33;7.50;;;3.67;;
82640;SDS011;72322;41.918;22.414;2023-08-21T12:49:59;4.78;;;3.92;;
82640;SDS011;72322;41.918;22.414;2023-08-21T12:52:25;5.13;;;3.58;;
82640;SDS011;72322;41.918;22.414;2023-08-21T12:54:51;5.55;;;3.55;;
82640;SDS011;72322;41.918;22.414;2023-08-21T12:57:17;13.90;;;4.38;;
82640;SDS011;72322;41.918;22.414;2023-08-21T12:59:43;5.20;;;3.70;;
82640;SDS011;72322;41.918;22.414;2023-08-21T13:02:09;4.18;;;3.60;;
82640;SDS011;72322;41.918;22.414;2023-08-21T13:04:35;5.05;;;3.95;;
82640;SDS011;72322;41.918;22.414;2023-08-21T13:07:01;7.22;;;3.90;;
82640;SDS011;72322;41.918;22.414;2023-08-21T13:09:28;10.05;;;4.40;;
82640;SDS011;72322;41.918;22.414;2023-08-21T13:11:54;5.05;;;3.75;;
82640;SDS011;72322;41.918;22.414;2023-08-21T13:14:20;13.80;;;4.75;;
82640;SDS011;72322;41.918;22.414;2023-08-21T13:16:46;4.93;;;4.32;;
82640;SDS011;72322;41.918;22.414;2023-08-21T13:19:12;5.60;;;3.85;;
82640;SDS011;72322;41.918;22.414;2023-08-21T13:21:38;5.15;;;4.03;;
82640;SDS011;72322;41.918;22.414;2023-08-21T13:24:05;10.15;;;4.65;;
82640;SDS011;72322;41.918;22.414;2023-08-21T13:26:31;6.63;;;4.60;;
82640;SDS011;72322;41.918;22.414;2023-08-21T13:28:58;6.55;;;4.45;;
82640;SDS011;72322;41.918;22.414;2023-08-21T13:31:24;6.43;;;4.60;;
82640;SDS011;72322;41.918;22.414;2023-08-21T13:33:52;7.43;;;4.85;;
82640;SDS011;72322;41.918;22.414;2023-08-21T13:36:19;6.45;;;4.30;;
82640;SDS011;72322;41.918;22.414;2023-08-21T13:38:46;7.15;;;3.95;;
82640;SDS011;72322;41.918;22.414;2023-08-21T13:41:12;12.88;;;5.20;;
82640;SDS011;72322;41.918;22.414;2023-08-21T13:43:38;9.95;;;4.35;;
82640;SDS011;72322;41.918;22.414;2023-08-21T13:46:04;5.28;;;4.25;;
82640;SDS011;72322;41.918;22.414;2023-08-21T13:48:30;4.65;;;4.15;;
82640;SDS011;72322;41.918;22.414;2023-08-21T13:50:56;4.88;;;4.32;;
82640;SDS011;72322;41.918;22.414;2023-08-21T13:53:22;6.25;;;4.13;;
82640;SDS011;72322;41.918;22.414;2023-08-21T13:55:51;8.98;;;5.57;;
82640;SDS011;72322;41.918;22.414;2023-08-21T13:58:18;6.97;;;4.20;;
82640;SDS011;72322;41.918;22.414;2023-08-21T14:00:44;7.10;;;4.40;;
82640;SDS011;72322;41.918;22.414;2023-08-21T14:03:10;5.93;;;4.25;;
82640;SDS011;72322;41.918;22.414;2023-08-21T14:05:36;6.95;;;4.05;;
82640;SDS011;72322;41.918;22.414;2023-08-21T14:08:02;6.97;;;3.95;;
82640;SDS011;72322;41.918;22.414;2023-08-21T14:12:55;8.55;;;4.28;;
82640;SDS011;72322;41.918;22.414;2023-08-21T14:15:22;8.52;;;4.18;;
82640;SDS011;72322;41.918;22.414;2023-08-21T14:20:14;7.22;;;4.28;;
82640;SDS011;72322;41.918;22.414;2023-08-21T14:22:41;8.75;;;3.72;;
82640;SDS011;72322;41.918;22.414;2023-08-21T14:25:07;7.97;;;4.15;;
82640;SDS011;72322;41.918;22.414;2023-08-21T14:27:33;5.50;;;4.22;;
82640;SDS011;72322;41.918;22.414;2023-08-21T14:29:59;4.63;;;3.72;;
82640;SDS011;72322;41.918;22.414;2023-08-21T14:32:26;4.88;;;4.03;;
82640;SDS011;72322;41.918;22.414;2023-08-21T14:34:52;7.95;;;4.57;;
82640;SDS011;72322;41.918;22.414;2023-08-21T14:37:19;6.38;;;4.20;;
82640;SDS011;72322;41.918;22.414;2023-08-21T14:39:46;7.13;;;4.18;;
82640;SDS011;72322;41.918;22.414;2023-08-21T14:42:13;5.15;;;4.38;;
82640;SDS011;72322;41.918;22.414;2023-08-21T14:44:39;9.10;;;4.07;;
82640;SDS011;72322;41.918;22.414;2023-08-21T14:47:05;8.38;;;4.28;;